메인 페이지
METAR-TAF:

METAR-TAF

공항 :

베를린 테겔 국제공항

베를린, 독일

위도: 52-34N, 경도: 013-19E, 고도: 37m

현재 날씨관측

예보는 22분 전, 09:20시(UTC)에 발표되었습니다.
동북동5kt북북동풍과 풍을 오가는
온도 8°C
습도 100%
기압 1012 hPa
시정: 4500m
고도 400ft 상공 구름 많음
박무

METAR: EDDT 210920Z 07005KT 020V100 4500 BR BKN004 08/08 Q1012 TEMPO 5000 BKN005

시각: 10:42 (09:42 UTC)

예보

예보는 4 시간 42분 전, 05:00시(UTC)에 발표되었습니다.
예보 대상 시간: 21일 06시부터 22일 06시까지 (UTC)
동북동5kt
시정: 3500m
고도 500ft 상공 흐림
박무
일시적
21일 06시부터 21일 11시까지 (UTC)
시정: 2000m
고도 300ft 상공 구름 많음
박무
일시적
21일 11시부터 21일 18시까지 (UTC)
시정: 6000m
전환 중
21일 18시부터 21일 22시까지 (UTC)
남동5kt
시정: 2500m
고도 300ft 상공 구름 많음
박무

TAF: EDDT 210500Z 2106/2206 07005KT 3500 BR OVC005 TEMPO 2106/2111 2000 BR BKN003 TEMPO 2111/2118 6000 BECMG 2118/2122 14005KT 2500 BR BKN003

4,000개 이상의 공항 관측 자료 및 예보 (METAR 및 TAF 보고).

지도상에서 검색 가능한 기상관측소가 노란 점과 빨간 점으로 표시되어 있습니다.

기상관측소 명을 보려면 표시 위로 마우스를 이동하세요.

날씨 관측과 예보를 보려면 클릭하세요.

지도 변경 : 확대하려면 엑스 표시가 있는 녹색 버튼, 축소하려면 빼기 표시가 있는 녹색 버튼, 다음 페이지의 지도를 보려면 녹색 화살표를 클릭하세요.


METAR-TAF: